sensor_id;sensor_type;location;lat;lon;timestamp;P1;durP1;ratioP1;P2;durP2;ratioP2
18738;SDS011;9498;51.862;19.460;2022-12-29T00:00:03;13.20;;;5.87;;
18738;SDS011;9498;51.862;19.460;2022-12-29T00:02:31;12.27;;;5.83;;
18738;SDS011;9498;51.862;19.460;2022-12-29T00:05:00;15.23;;;6.07;;
18738;SDS011;9498;51.862;19.460;2022-12-29T00:07:27;13.73;;;5.77;;
18738;SDS011;9498;51.862;19.460;2022-12-29T00:09:54;11.83;;;5.37;;
18738;SDS011;9498;51.862;19.460;2022-12-29T00:12:22;13.80;;;5.83;;
18738;SDS011;9498;51.862;19.460;2022-12-29T00:14:49;10.70;;;5.40;;
18738;SDS011;9498;51.862;19.460;2022-12-29T00:17:33;12.33;;;5.67;;
18738;SDS011;9498;51.862;19.460;2022-12-29T00:20:02;13.07;;;5.50;;
18738;SDS011;9498;51.862;19.460;2022-12-29T00:22:47;11.83;;;5.63;;
18738;SDS011;9498;51.862;19.460;2022-12-29T00:25:32;14.07;;;5.77;;
18738;SDS011;9498;51.862;19.460;2022-12-29T00:28:29;13.10;;;5.70;;
18738;SDS011;9498;51.862;19.460;2022-12-29T00:31:14;11.77;;;5.47;;
18738;SDS011;9498;51.862;19.460;2022-12-29T00:33:58;14.27;;;5.33;;
18738;SDS011;9498;51.862;19.460;2022-12-29T00:36:41;12.38;;;5.60;;
18738;SDS011;9498;51.862;19.460;2022-12-29T00:39:09;12.70;;;5.67;;
18738;SDS011;9498;51.862;19.460;2022-12-29T00:41:54;13.67;;;5.23;;
18738;SDS011;9498;51.862;19.460;2022-12-29T00:44:39;11.60;;;5.23;;
18738;SDS011;9498;51.862;19.460;2022-12-29T00:47:06;13.63;;;5.17;;
18738;SDS011;9498;51.862;19.460;2022-12-29T00:49:34;11.40;;;5.10;;
18738;SDS011;9498;51.862;19.460;2022-12-29T00:52:02;10.50;;;4.60;;
18738;SDS011;9498;51.862;19.460;2022-12-29T00:54:30;9.43;;;5.17;;
18738;SDS011;9498;51.862;19.460;2022-12-29T00:56:58;12.50;;;5.27;;
18738;SDS011;9498;51.862;19.460;2022-12-29T00:59:25;11.50;;;4.60;;
18738;SDS011;9498;51.862;19.460;2022-12-29T01:01:53;9.80;;;4.80;;
18738;SDS011;9498;51.862;19.460;2022-12-29T01:04:21;14.43;;;5.23;;
18738;SDS011;9498;51.862;19.460;2022-12-29T01:06:48;12.88;;;5.60;;
18738;SDS011;9498;51.862;19.460;2022-12-29T01:09:18;11.27;;;5.07;;
18738;SDS011;9498;51.862;19.460;2022-12-29T01:12:02;9.73;;;4.70;;
18738;SDS011;9498;51.862;19.460;2022-12-29T01:14:30;12.60;;;4.97;;
18738;SDS011;9498;51.862;19.460;2022-12-29T01:16:57;11.43;;;5.50;;
18738;SDS011;9498;51.862;19.460;2022-12-29T01:19:25;10.90;;;5.50;;
18738;SDS011;9498;51.862;19.460;2022-12-29T01:21:52;12.63;;;5.43;;
18738;SDS011;9498;51.862;19.460;2022-12-29T01:24:21;12.87;;;5.27;;
18738;SDS011;9498;51.862;19.460;2022-12-29T01:26:49;14.97;;;5.60;;
18738;SDS011;9498;51.862;19.460;2022-12-29T01:29:16;13.63;;;5.00;;
18738;SDS011;9498;51.862;19.460;2022-12-29T01:31:44;12.80;;;5.23;;
18738;SDS011;9498;51.862;19.460;2022-12-29T01:34:11;12.83;;;5.33;;
18738;SDS011;9498;51.862;19.460;2022-12-29T01:36:38;12.40;;;5.73;;
18738;SDS011;9498;51.862;19.460;2022-12-29T01:39:05;11.47;;;5.60;;
18738;SDS011;9498;51.862;19.460;2022-12-29T01:41:34;11.67;;;5.10;;
18738;SDS011;9498;51.862;19.460;2022-12-29T01:44:02;14.10;;;4.70;;
18738;SDS011;9498;51.862;19.460;2022-12-29T01:46:30;13.40;;;5.10;;
18738;SDS011;9498;51.862;19.460;2022-12-29T01:48:59;9.90;;;4.97;;
18738;SDS011;9498;51.862;19.460;2022-12-29T01:51:29;10.17;;;4.83;;
18738;SDS011;9498;51.862;19.460;2022-12-29T01:53:58;9.97;;;4.77;;
18738;SDS011;9498;51.862;19.460;2022-12-29T01:56:28;11.33;;;4.73;;
18738;SDS011;9498;51.862;19.460;2022-12-29T01:58:58;8.50;;;4.50;;
18738;SDS011;9498;51.862;19.460;2022-12-29T02:01:27;12.60;;;4.80;;
18738;SDS011;9498;51.862;19.460;2022-12-29T02:03:54;8.70;;;4.43;;
18738;SDS011;9498;51.862;19.460;2022-12-29T02:06:22;12.77;;;5.20;;
18738;SDS011;9498;51.862;19.460;2022-12-29T02:08:52;7.83;;;4.20;;
18738;SDS011;9498;51.862;19.460;2022-12-29T02:11:20;10.73;;;4.50;;
18738;SDS011;9498;51.862;19.460;2022-12-29T02:13:48;9.13;;;4.53;;
18738;SDS011;9498;51.862;19.460;2022-12-29T02:16:21;9.27;;;4.63;;
18738;SDS011;9498;51.862;19.460;2022-12-29T02:18:55;12.87;;;4.33;;
18738;SDS011;9498;51.862;19.460;2022-12-29T02:21:45;8.73;;;4.50;;
18738;SDS011;9498;51.862;19.460;2022-12-29T02:24:19;10.80;;;4.50;;
18738;SDS011;9498;51.862;19.460;2022-12-29T02:26:49;11.70;;;4.57;;
18738;SDS011;9498;51.862;19.460;2022-12-29T02:29:36;9.93;;;3.70;;
18738;SDS011;9498;51.862;19.460;2022-12-29T02:32:09;9.07;;;4.13;;
18738;SDS011;9498;51.862;19.460;2022-12-29T02:34:40;8.07;;;3.83;;
18738;SDS011;9498;51.862;19.460;2022-12-29T02:37:12;11.20;;;4.68;;
18738;SDS011;9498;51.862;19.460;2022-12-29T02:39:42;11.60;;;4.43;;
18738;SDS011;9498;51.862;19.460;2022-12-29T02:42:17;7.60;;;4.10;;
18738;SDS011;9498;51.862;19.460;2022-12-29T02:44:51;8.10;;;3.97;;
18738;SDS011;9498;51.862;19.460;2022-12-29T02:47:23;6.13;;;3.30;;
18738;SDS011;9498;51.862;19.460;2022-12-29T02:49:56;9.00;;;4.13;;
18738;SDS011;9498;51.862;19.460;2022-12-29T02:52:25;10.33;;;4.17;;
18738;SDS011;9498;51.862;19.460;2022-12-29T02:54:54;9.37;;;4.23;;
18738;SDS011;9498;51.862;19.460;2022-12-29T02:57:31;10.00;;;4.40;;
18738;SDS011;9498;51.862;19.460;2022-12-29T03:00:00;7.30;;;3.13;;
18738;SDS011;9498;51.862;19.460;2022-12-29T03:05:29;10.07;;;4.53;;
18738;SDS011;9498;51.862;19.460;2022-12-29T03:08:01;8.60;;;3.87;;
18738;SDS011;9498;51.862;19.460;2022-12-29T03:10:31;10.67;;;4.10;;
18738;SDS011;9498;51.862;19.460;2022-12-29T03:13:03;7.50;;;3.93;;
18738;SDS011;9498;51.862;19.460;2022-12-29T03:15:50;6.70;;;3.60;;
18738;SDS011;9498;51.862;19.460;2022-12-29T03:18:37;8.53;;;4.27;;
18738;SDS011;9498;51.862;19.460;2022-12-29T03:21:07;7.13;;;3.87;;
18738;SDS011;9498;51.862;19.460;2022-12-29T03:23:36;8.40;;;3.80;;
18738;SDS011;9498;51.862;19.460;2022-12-29T03:26:04;11.53;;;4.07;;
18738;SDS011;9498;51.862;19.460;2022-12-29T03:28:35;7.90;;;3.50;;
18738;SDS011;9498;51.862;19.460;2022-12-29T03:31:03;9.63;;;3.97;;
18738;SDS011;9498;51.862;19.460;2022-12-29T03:33:31;8.53;;;3.97;;
18738;SDS011;9498;51.862;19.460;2022-12-29T03:36:02;8.98;;;4.45;;
18738;SDS011;9498;51.862;19.460;2022-12-29T03:38:31;8.50;;;4.30;;
18738;SDS011;9498;51.862;19.460;2022-12-29T03:41:01;11.13;;;4.17;;
18738;SDS011;9498;51.862;19.460;2022-12-29T03:43:30;11.43;;;4.27;;
18738;SDS011;9498;51.862;19.460;2022-12-29T03:45:58;9.07;;;3.83;;
18738;SDS011;9498;51.862;19.460;2022-12-29T03:48:25;11.57;;;4.30;;
18738;SDS011;9498;51.862;19.460;2022-12-29T03:50:53;10.03;;;4.07;;
18738;SDS011;9498;51.862;19.460;2022-12-29T03:53:21;10.27;;;3.93;;
18738;SDS011;9498;51.862;19.460;2022-12-29T03:55:49;9.50;;;4.27;;
18738;SDS011;9498;51.862;19.460;2022-12-29T03:58:16;8.47;;;4.23;;
18738;SDS011;9498;51.862;19.460;2022-12-29T04:00:43;7.73;;;4.13;;
18738;SDS011;9498;51.862;19.460;2022-12-29T04:03:11;9.83;;;4.13;;
18738;SDS011;9498;51.862;19.460;2022-12-29T04:05:38;9.53;;;4.00;;
18738;SDS011;9498;51.862;19.460;2022-12-29T04:08:05;9.03;;;4.37;;
18738;SDS011;9498;51.862;19.460;2022-12-29T04:10:34;12.30;;;3.83;;
18738;SDS011;9498;51.862;19.460;2022-12-29T04:13:01;7.97;;;3.70;;
18738;SDS011;9498;51.862;19.460;2022-12-29T04:15:29;8.13;;;4.23;;
18738;SDS011;9498;51.862;19.460;2022-12-29T04:17:56;10.73;;;4.30;;
18738;SDS011;9498;51.862;19.460;2022-12-29T04:20:23;10.57;;;4.63;;
18738;SDS011;9498;51.862;19.460;2022-12-29T04:23:08;8.30;;;4.00;;
18738;SDS011;9498;51.862;19.460;2022-12-29T04:25:37;8.23;;;4.00;;
18738;SDS011;9498;51.862;19.460;2022-12-29T04:28:04;10.53;;;5.43;;
18738;SDS011;9498;51.862;19.460;2022-12-29T04:30:33;9.13;;;4.57;;
18738;SDS011;9498;51.862;19.460;2022-12-29T04:33:00;9.82;;;4.50;;
18738;SDS011;9498;51.862;19.460;2022-12-29T04:35:27;11.83;;;4.93;;
18738;SDS011;9498;51.862;19.460;2022-12-29T04:37:54;12.40;;;4.77;;
18738;SDS011;9498;51.862;19.460;2022-12-29T04:40:22;8.83;;;4.23;;
18738;SDS011;9498;51.862;19.460;2022-12-29T04:42:50;8.37;;;3.87;;
18738;SDS011;9498;51.862;19.460;2022-12-29T04:45:18;7.70;;;3.53;;
18738;SDS011;9498;51.862;19.460;2022-12-29T04:47:45;10.70;;;4.20;;
18738;SDS011;9498;51.862;19.460;2022-12-29T04:50:12;13.97;;;5.43;;
18738;SDS011;9498;51.862;19.460;2022-12-29T04:52:40;8.17;;;4.13;;
18738;SDS011;9498;51.862;19.460;2022-12-29T04:55:07;9.13;;;4.47;;
18738;SDS011;9498;51.862;19.460;2022-12-29T04:57:35;7.70;;;3.80;;
18738;SDS011;9498;51.862;19.460;2022-12-29T05:00:04;7.97;;;4.00;;
18738;SDS011;9498;51.862;19.460;2022-12-29T05:02:32;8.38;;;3.80;;
18738;SDS011;9498;51.862;19.460;2022-12-29T05:04:59;8.43;;;4.10;;
18738;SDS011;9498;51.862;19.460;2022-12-29T05:07:26;10.70;;;3.93;;
18738;SDS011;9498;51.862;19.460;2022-12-29T05:09:54;9.30;;;4.20;;
18738;SDS011;9498;51.862;19.460;2022-12-29T05:12:21;8.50;;;4.20;;
18738;SDS011;9498;51.862;19.460;2022-12-29T05:14:48;7.17;;;3.70;;
18738;SDS011;9498;51.862;19.460;2022-12-29T05:17:17;9.13;;;3.73;;
18738;SDS011;9498;51.862;19.460;2022-12-29T05:19:44;15.03;;;4.43;;
18738;SDS011;9498;51.862;19.460;2022-12-29T05:22:11;7.70;;;4.10;;
18738;SDS011;9498;51.862;19.460;2022-12-29T05:24:39;7.80;;;3.67;;
18738;SDS011;9498;51.862;19.460;2022-12-29T05:27:06;10.30;;;4.40;;
18738;SDS011;9498;51.862;19.460;2022-12-29T05:29:34;6.30;;;3.20;;
18738;SDS011;9498;51.862;19.460;2022-12-29T05:32:01;8.47;;;3.93;;
18738;SDS011;9498;51.862;19.460;2022-12-29T05:34:30;8.23;;;3.73;;
18738;SDS011;9498;51.862;19.460;2022-12-29T05:36:57;7.80;;;3.90;;
18738;SDS011;9498;51.862;19.460;2022-12-29T05:39:25;7.20;;;3.77;;
18738;SDS011;9498;51.862;19.460;2022-12-29T05:41:52;10.47;;;4.37;;
18738;SDS011;9498;51.862;19.460;2022-12-29T05:44:19;7.33;;;3.90;;
18738;SDS011;9498;51.862;19.460;2022-12-29T05:46:47;9.33;;;4.23;;
18738;SDS011;9498;51.862;19.460;2022-12-29T05:49:14;10.63;;;4.60;;
18738;SDS011;9498;51.862;19.460;2022-12-29T05:51:43;7.63;;;3.43;;
18738;SDS011;9498;51.862;19.460;2022-12-29T05:54:10;8.20;;;4.33;;
18738;SDS011;9498;51.862;19.460;2022-12-29T05:56:37;8.20;;;4.10;;
18738;SDS011;9498;51.862;19.460;2022-12-29T05:59:04;8.77;;;4.10;;
18738;SDS011;9498;51.862;19.460;2022-12-29T06:01:32;7.43;;;3.50;;
18738;SDS011;9498;51.862;19.460;2022-12-29T06:03:59;10.88;;;4.85;;
18738;SDS011;9498;51.862;19.460;2022-12-29T06:06:27;12.80;;;4.13;;
18738;SDS011;9498;51.862;19.460;2022-12-29T06:08:55;8.17;;;4.23;;
18738;SDS011;9498;51.862;19.460;2022-12-29T06:11:23;8.83;;;3.73;;
18738;SDS011;9498;51.862;19.460;2022-12-29T06:13:50;7.63;;;4.37;;
18738;SDS011;9498;51.862;19.460;2022-12-29T06:16:17;10.60;;;4.53;;
18738;SDS011;9498;51.862;19.460;2022-12-29T06:18:45;9.10;;;3.90;;
18738;SDS011;9498;51.862;19.460;2022-12-29T06:21:12;6.70;;;3.60;;
18738;SDS011;9498;51.862;19.460;2022-12-29T06:23:39;9.47;;;4.43;;
18738;SDS011;9498;51.862;19.460;2022-12-29T06:26:08;8.57;;;4.37;;
18738;SDS011;9498;51.862;19.460;2022-12-29T06:28:35;10.20;;;4.53;;
18738;SDS011;9498;51.862;19.460;2022-12-29T06:31:03;8.67;;;4.00;;
18738;SDS011;9498;51.862;19.460;2022-12-29T06:33:30;11.60;;;4.50;;
18738;SDS011;9498;51.862;19.460;2022-12-29T06:35:57;8.07;;;4.13;;
18738;SDS011;9498;51.862;19.460;2022-12-29T06:38:24;9.00;;;4.20;;
18738;SDS011;9498;51.862;19.460;2022-12-29T06:40:52;11.67;;;4.53;;
18738;SDS011;9498;51.862;19.460;2022-12-29T06:43:21;11.67;;;4.63;;
18738;SDS011;9498;51.862;19.460;2022-12-29T06:45:48;7.43;;;4.13;;
18738;SDS011;9498;51.862;19.460;2022-12-29T06:48:15;7.37;;;3.97;;
18738;SDS011;9498;51.862;19.460;2022-12-29T06:50:42;9.73;;;4.53;;
18738;SDS011;9498;51.862;19.460;2022-12-29T06:53:10;8.87;;;4.50;;
18738;SDS011;9498;51.862;19.460;2022-12-29T06:55:37;7.43;;;3.87;;
18738;SDS011;9498;51.862;19.460;2022-12-29T06:58:04;10.30;;;4.60;;
18738;SDS011;9498;51.862;19.460;2022-12-29T07:00:33;8.83;;;4.60;;
18738;SDS011;9498;51.862;19.460;2022-12-29T07:03:00;8.70;;;4.00;;
18738;SDS011;9498;51.862;19.460;2022-12-29T07:05:28;12.13;;;4.37;;
18738;SDS011;9498;51.862;19.460;2022-12-29T07:07:57;11.13;;;4.40;;
18738;SDS011;9498;51.862;19.460;2022-12-29T07:10:25;10.70;;;4.70;;
18738;SDS011;9498;51.862;19.460;2022-12-29T07:12:52;10.13;;;4.23;;
18738;SDS011;9498;51.862;19.460;2022-12-29T07:15:19;8.60;;;4.03;;
18738;SDS011;9498;51.862;19.460;2022-12-29T07:17:48;8.27;;;4.03;;
18738;SDS011;9498;51.862;19.460;2022-12-29T07:20:16;11.60;;;4.47;;
18738;SDS011;9498;51.862;19.460;2022-12-29T07:22:43;8.40;;;3.93;;
18738;SDS011;9498;51.862;19.460;2022-12-29T07:25:12;10.40;;;4.40;;
18738;SDS011;9498;51.862;19.460;2022-12-29T07:27:39;12.47;;;5.00;;
18738;SDS011;9498;51.862;19.460;2022-12-29T07:30:07;10.90;;;4.37;;
18738;SDS011;9498;51.862;19.460;2022-12-29T07:32:35;6.73;;;4.07;;
18738;SDS011;9498;51.862;19.460;2022-12-29T07:35:03;9.93;;;4.40;;
18738;SDS011;9498;51.862;19.460;2022-12-29T07:37:31;10.45;;;4.47;;
18738;SDS011;9498;51.862;19.460;2022-12-29T07:39:58;11.17;;;4.80;;
18738;SDS011;9498;51.862;19.460;2022-12-29T07:42:25;10.07;;;4.77;;
18738;SDS011;9498;51.862;19.460;2022-12-29T07:44:53;8.20;;;4.20;;
18738;SDS011;9498;51.862;19.460;2022-12-29T07:47:20;10.33;;;4.20;;
18738;SDS011;9498;51.862;19.460;2022-12-29T07:49:47;8.27;;;4.20;;
18738;SDS011;9498;51.862;19.460;2022-12-29T07:52:16;6.93;;;3.93;;
18738;SDS011;9498;51.862;19.460;2022-12-29T07:54:43;9.90;;;4.33;;
18738;SDS011;9498;51.862;19.460;2022-12-29T07:57:11;10.97;;;4.53;;
18738;SDS011;9498;51.862;19.460;2022-12-29T07:59:38;10.07;;;4.37;;
18738;SDS011;9498;51.862;19.460;2022-12-29T08:02:05;10.00;;;4.50;;
18738;SDS011;9498;51.862;19.460;2022-12-29T08:04:33;8.97;;;4.37;;
18738;SDS011;9498;51.862;19.460;2022-12-29T08:07:00;13.27;;;4.50;;
18738;SDS011;9498;51.862;19.460;2022-12-29T08:09:29;9.10;;;4.60;;
18738;SDS011;9498;51.862;19.460;2022-12-29T08:11:56;9.07;;;4.53;;
18738;SDS011;9498;51.862;19.460;2022-12-29T08:14:23;9.03;;;4.20;;
18738;SDS011;9498;51.862;19.460;2022-12-29T08:16:51;11.33;;;4.20;;
18738;SDS011;9498;51.862;19.460;2022-12-29T08:19:18;11.17;;;4.53;;
18738;SDS011;9498;51.862;19.460;2022-12-29T08:21:45;8.57;;;4.23;;
18738;SDS011;9498;51.862;19.460;2022-12-29T08:24:13;8.63;;;4.10;;
18738;SDS011;9498;51.862;19.460;2022-12-29T08:26:41;11.23;;;4.80;;
18738;SDS011;9498;51.862;19.460;2022-12-29T08:29:09;9.57;;;5.13;;
18738;SDS011;9498;51.862;19.460;2022-12-29T08:31:36;11.00;;;4.87;;
18738;SDS011;9498;51.862;19.460;2022-12-29T08:34:03;8.90;;;4.30;;
18738;SDS011;9498;51.862;19.460;2022-12-29T08:36:31;11.17;;;4.47;;
18738;SDS011;9498;51.862;19.460;2022-12-29T08:38:58;9.75;;;4.97;;
18738;SDS011;9498;51.862;19.460;2022-12-29T08:41:26;12.20;;;5.73;;
18738;SDS011;9498;51.862;19.460;2022-12-29T08:43:54;11.33;;;5.07;;
18738;SDS011;9498;51.862;19.460;2022-12-29T08:46:22;12.07;;;4.73;;
18738;SDS011;9498;51.862;19.460;2022-12-29T08:48:49;12.60;;;4.70;;
18738;SDS011;9498;51.862;19.460;2022-12-29T08:51:16;11.03;;;5.13;;
18738;SDS011;9498;51.862;19.460;2022-12-29T08:53:44;13.93;;;4.83;;
18738;SDS011;9498;51.862;19.460;2022-12-29T08:56:11;10.93;;;4.70;;
18738;SDS011;9498;51.862;19.460;2022-12-29T08:58:38;10.73;;;4.27;;
18738;SDS011;9498;51.862;19.460;2022-12-29T09:01:08;11.23;;;4.80;;
18738;SDS011;9498;51.862;19.460;2022-12-29T09:03:36;9.23;;;4.33;;
18738;SDS011;9498;51.862;19.460;2022-12-29T09:06:03;11.03;;;4.53;;
18738;SDS011;9498;51.862;19.460;2022-12-29T09:08:31;13.63;;;4.90;;
18738;SDS011;9498;51.862;19.460;2022-12-29T09:11:05;12.80;;;4.80;;
18738;SDS011;9498;51.862;19.460;2022-12-29T09:13:33;11.90;;;5.00;;
18738;SDS011;9498;51.862;19.460;2022-12-29T09:16:00;11.80;;;4.20;;
18738;SDS011;9498;51.862;19.460;2022-12-29T09:18:29;11.40;;;4.70;;
18738;SDS011;9498;51.862;19.460;2022-12-29T09:20:57;12.13;;;5.45;;
18738;SDS011;9498;51.862;19.460;2022-12-29T09:23:24;9.53;;;4.90;;
18738;SDS011;9498;51.862;19.460;2022-12-29T09:25:52;11.27;;;5.37;;
18738;SDS011;9498;51.862;19.460;2022-12-29T09:28:19;12.27;;;5.10;;
18738;SDS011;9498;51.862;19.460;2022-12-29T09:30:47;12.67;;;4.90;;
18738;SDS011;9498;51.862;19.460;2022-12-29T09:33:14;11.30;;;5.13;;
18738;SDS011;9498;51.862;19.460;2022-12-29T09:35:43;11.97;;;5.10;;
18738;SDS011;9498;51.862;19.460;2022-12-29T09:38:11;11.70;;;5.77;;
18738;SDS011;9498;51.862;19.460;2022-12-29T09:40:41;10.03;;;4.70;;
18738;SDS011;9498;51.862;19.460;2022-12-29T09:43:15;10.60;;;5.13;;
18738;SDS011;9498;51.862;19.460;2022-12-29T09:45:45;12.40;;;4.83;;
18738;SDS011;9498;51.862;19.460;2022-12-29T09:48:16;12.07;;;5.10;;
18738;SDS011;9498;51.862;19.460;2022-12-29T09:50:46;11.33;;;4.97;;
18738;SDS011;9498;51.862;19.460;2022-12-29T09:53:16;10.52;;;5.43;;
18738;SDS011;9498;51.862;19.460;2022-12-29T09:55:45;10.93;;;4.83;;
18738;SDS011;9498;51.862;19.460;2022-12-29T09:58:15;11.90;;;5.23;;
18738;SDS011;9498;51.862;19.460;2022-12-29T10:00:47;12.87;;;6.40;;
18738;SDS011;9498;51.862;19.460;2022-12-29T10:03:16;11.73;;;4.57;;
18738;SDS011;9498;51.862;19.460;2022-12-29T10:05:46;9.93;;;4.87;;
18738;SDS011;9498;51.862;19.460;2022-12-29T10:08:21;12.03;;;5.10;;
18738;SDS011;9498;51.862;19.460;2022-12-29T10:10:51;10.77;;;5.37;;
18738;SDS011;9498;51.862;19.460;2022-12-29T10:13:24;14.33;;;5.20;;
18738;SDS011;9498;51.862;19.460;2022-12-29T10:15:57;14.17;;;4.83;;
18738;SDS011;9498;51.862;19.460;2022-12-29T10:18:32;12.17;;;5.07;;
18738;SDS011;9498;51.862;19.460;2022-12-29T10:21:05;12.37;;;5.53;;
18738;SDS011;9498;51.862;19.460;2022-12-29T10:23:38;11.40;;;4.70;;
18738;SDS011;9498;51.862;19.460;2022-12-29T10:26:08;11.75;;;5.47;;
18738;SDS011;9498;51.862;19.460;2022-12-29T10:28:37;11.70;;;4.83;;
18738;SDS011;9498;51.862;19.460;2022-12-29T10:31:06;11.77;;;5.10;;
18738;SDS011;9498;51.862;19.460;2022-12-29T10:33:36;14.77;;;5.67;;
18738;SDS011;9498;51.862;19.460;2022-12-29T10:36:09;13.57;;;5.27;;
18738;SDS011;9498;51.862;19.460;2022-12-29T10:38:40;12.60;;;4.77;;
18738;SDS011;9498;51.862;19.460;2022-12-29T10:41:11;11.93;;;5.30;;
18738;SDS011;9498;51.862;19.460;2022-12-29T10:43:43;11.07;;;5.20;;
18738;SDS011;9498;51.862;19.460;2022-12-29T10:46:12;9.40;;;4.40;;
18738;SDS011;9498;51.862;19.460;2022-12-29T10:48:41;11.43;;;4.77;;
18738;SDS011;9498;51.862;19.460;2022-12-29T10:51:15;10.57;;;4.80;;
18738;SDS011;9498;51.862;19.460;2022-12-29T10:53:44;11.93;;;5.30;;
18738;SDS011;9498;51.862;19.460;2022-12-29T10:56:14;11.80;;;5.03;;
18738;SDS011;9498;51.862;19.460;2022-12-29T10:58:43;12.30;;;5.65;;
18738;SDS011;9498;51.862;19.460;2022-12-29T11:01:13;12.80;;;4.87;;
18738;SDS011;9498;51.862;19.460;2022-12-29T11:03:44;10.37;;;4.97;;
18738;SDS011;9498;51.862;19.460;2022-12-29T11:06:16;13.17;;;4.47;;
18738;SDS011;9498;51.862;19.460;2022-12-29T11:08:50;10.43;;;4.60;;
18738;SDS011;9498;51.862;19.460;2022-12-29T11:11:24;13.13;;;5.50;;
18738;SDS011;9498;51.862;19.460;2022-12-29T11:13:55;11.43;;;5.03;;
18738;SDS011;9498;51.862;19.460;2022-12-29T11:16:27;10.77;;;4.67;;
18738;SDS011;9498;51.862;19.460;2022-12-29T11:18:56;9.90;;;5.40;;
18738;SDS011;9498;51.862;19.460;2022-12-29T11:21:25;12.03;;;4.97;;
18738;SDS011;9498;51.862;19.460;2022-12-29T11:23:56;9.80;;;4.80;;
18738;SDS011;9498;51.862;19.460;2022-12-29T11:26:25;13.00;;;5.27;;
18738;SDS011;9498;51.862;19.460;2022-12-29T11:29:14;9.80;;;4.23;;
18738;SDS011;9498;51.862;19.460;2022-12-29T11:31:44;12.47;;;5.60;;
18738;SDS011;9498;51.862;19.460;2022-12-29T11:34:16;12.80;;;4.90;;
18738;SDS011;9498;51.862;19.460;2022-12-29T11:36:44;10.67;;;4.83;;
18738;SDS011;9498;51.862;19.460;2022-12-29T11:39:22;16.60;;;4.90;;
18738;SDS011;9498;51.862;19.460;2022-12-29T11:41:51;10.77;;;4.60;;
18738;SDS011;9498;51.862;19.460;2022-12-29T11:44:19;10.13;;;4.70;;
18738;SDS011;9498;51.862;19.460;2022-12-29T11:46:48;16.93;;;4.57;;
18738;SDS011;9498;51.862;19.460;2022-12-29T11:49:19;10.67;;;5.10;;
18738;SDS011;9498;51.862;19.460;2022-12-29T11:51:47;15.60;;;5.00;;
18738;SDS011;9498;51.862;19.460;2022-12-29T11:54:16;10.90;;;5.10;;
18738;SDS011;9498;51.862;19.460;2022-12-29T11:56:46;9.37;;;4.93;;
18738;SDS011;9498;51.862;19.460;2022-12-29T11:59:21;13.83;;;4.70;;
18738;SDS011;9498;51.862;19.460;2022-12-29T12:01:51;12.23;;;4.33;;
18738;SDS011;9498;51.862;19.460;2022-12-29T12:04:19;12.07;;;5.13;;
18738;SDS011;9498;51.862;19.460;2022-12-29T12:06:49;10.27;;;4.33;;
18738;SDS011;9498;51.862;19.460;2022-12-29T12:09:23;9.93;;;4.70;;
18738;SDS011;9498;51.862;19.460;2022-12-29T12:11:53;11.67;;;5.10;;
18738;SDS011;9498;51.862;19.460;2022-12-29T12:14:23;12.13;;;5.38;;
18738;SDS011;9498;51.862;19.460;2022-12-29T12:16:52;11.90;;;4.77;;
18738;SDS011;9498;51.862;19.460;2022-12-29T12:19:24;10.20;;;4.67;;
18738;SDS011;9498;51.862;19.460;2022-12-29T12:21:54;9.07;;;4.10;;
18738;SDS011;9498;51.862;19.460;2022-12-29T12:24:31;11.00;;;5.00;;
18738;SDS011;9498;51.862;19.460;2022-12-29T12:27:07;11.50;;;5.00;;
18738;SDS011;9498;51.862;19.460;2022-12-29T12:29:37;11.77;;;5.13;;
18738;SDS011;9498;51.862;19.460;2022-12-29T12:32:10;12.10;;;5.23;;
18738;SDS011;9498;51.862;19.460;2022-12-29T12:34:39;11.93;;;4.90;;
18738;SDS011;9498;51.862;19.460;2022-12-29T12:37:21;10.70;;;5.03;;
18738;SDS011;9498;51.862;19.460;2022-12-29T12:39:59;16.87;;;5.40;;
18738;SDS011;9498;51.862;19.460;2022-12-29T12:42:36;13.90;;;5.37;;
18738;SDS011;9498;51.862;19.460;2022-12-29T12:48:07;13.70;;;5.75;;
18738;SDS011;9498;51.862;19.460;2022-12-29T12:50:41;12.63;;;5.47;;
18738;SDS011;9498;51.862;19.460;2022-12-29T12:53:24;13.17;;;5.27;;
18738;SDS011;9498;51.862;19.460;2022-12-29T12:56:00;16.17;;;5.77;;
18738;SDS011;9498;51.862;19.460;2022-12-29T12:58:34;12.40;;;5.50;;
18738;SDS011;9498;51.862;19.460;2022-12-29T13:01:08;23.17;;;6.27;;
18738;SDS011;9498;51.862;19.460;2022-12-29T13:03:44;14.23;;;5.60;;
18738;SDS011;9498;51.862;19.460;2022-12-29T13:06:15;15.63;;;6.13;;
18738;SDS011;9498;51.862;19.460;2022-12-29T13:08:50;14.17;;;6.03;;
18738;SDS011;9498;51.862;19.460;2022-12-29T13:11:25;12.50;;;5.27;;
18738;SDS011;9498;51.862;19.460;2022-12-29T13:16:46;13.77;;;6.38;;
18738;SDS011;9498;51.862;19.460;2022-12-29T13:19:20;14.23;;;5.30;;
18738;SDS011;9498;51.862;19.460;2022-12-29T13:21:56;16.20;;;5.67;;
18738;SDS011;9498;51.862;19.460;2022-12-29T13:24:28;10.27;;;5.47;;
18738;SDS011;9498;51.862;19.460;2022-12-29T13:26:58;11.20;;;5.07;;
18738;SDS011;9498;51.862;19.460;2022-12-29T13:29:32;8.40;;;4.30;;
18738;SDS011;9498;51.862;19.460;2022-12-29T13:32:04;13.30;;;5.30;;
18738;SDS011;9498;51.862;19.460;2022-12-29T13:34:39;13.30;;;4.93;;
18738;SDS011;9498;51.862;19.460;2022-12-29T13:37:09;14.50;;;5.90;;
18738;SDS011;9498;51.862;19.460;2022-12-29T13:39:39;11.27;;;5.00;;
18738;SDS011;9498;51.862;19.460;2022-12-29T13:42:07;14.53;;;5.37;;
18738;SDS011;9498;51.862;19.460;2022-12-29T13:44:38;13.33;;;5.30;;
18738;SDS011;9498;51.862;19.460;2022-12-29T13:47:11;15.50;;;4.90;;
18738;SDS011;9498;51.862;19.460;2022-12-29T13:49:42;14.17;;;4.57;;
18738;SDS011;9498;51.862;19.460;2022-12-29T13:52:11;14.47;;;5.03;;
18738;SDS011;9498;51.862;19.460;2022-12-29T13:54:40;14.00;;;5.47;;
18738;SDS011;9498;51.862;19.460;2022-12-29T13:57:14;20.40;;;5.90;;
18738;SDS011;9498;51.862;19.460;2022-12-29T13:59:48;13.63;;;5.70;;
18738;SDS011;9498;51.862;19.460;2022-12-29T14:02:19;14.27;;;5.57;;
18738;SDS011;9498;51.862;19.460;2022-12-29T14:04:58;13.60;;;6.00;;
18738;SDS011;9498;51.862;19.460;2022-12-29T14:07:26;10.53;;;5.50;;
18738;SDS011;9498;51.862;19.460;2022-12-29T14:09:54;15.47;;;6.03;;
18738;SDS011;9498;51.862;19.460;2022-12-29T14:12:27;16.67;;;6.00;;
18738;SDS011;9498;51.862;19.460;2022-12-29T14:15:03;11.63;;;5.17;;
18738;SDS011;9498;51.862;19.460;2022-12-29T14:17:31;12.77;;;5.10;;
18738;SDS011;9498;51.862;19.460;2022-12-29T14:19:59;11.70;;;5.93;;
18738;SDS011;9498;51.862;19.460;2022-12-29T14:22:27;13.37;;;6.00;;
18738;SDS011;9498;51.862;19.460;2022-12-29T14:24:54;13.93;;;5.90;;
18738;SDS011;9498;51.862;19.460;2022-12-29T14:33:19;12.87;;;5.63;;
18738;SDS011;9498;51.862;19.460;2022-12-29T14:35:47;17.02;;;6.78;;
18738;SDS011;9498;51.862;19.460;2022-12-29T14:38:24;15.40;;;6.00;;
18738;SDS011;9498;51.862;19.460;2022-12-29T14:40:52;11.60;;;5.47;;
18738;SDS011;9498;51.862;19.460;2022-12-29T14:43:23;15.40;;;5.40;;
18738;SDS011;9498;51.862;19.460;2022-12-29T14:45:52;13.83;;;5.60;;
18738;SDS011;9498;51.862;19.460;2022-12-29T14:48:29;11.77;;;5.10;;
18738;SDS011;9498;51.862;19.460;2022-12-29T14:50:57;14.83;;;4.87;;
18738;SDS011;9498;51.862;19.460;2022-12-29T14:53:44;13.47;;;5.00;;
18738;SDS011;9498;51.862;19.460;2022-12-29T14:56:12;15.83;;;5.50;;
18738;SDS011;9498;51.862;19.460;2022-12-29T14:58:43;14.37;;;6.27;;
18738;SDS011;9498;51.862;19.460;2022-12-29T15:01:18;13.63;;;5.50;;
18738;SDS011;9498;51.862;19.460;2022-12-29T15:03:49;11.93;;;5.60;;
18738;SDS011;9498;51.862;19.460;2022-12-29T15:06:17;15.97;;;6.33;;
18738;SDS011;9498;51.862;19.460;2022-12-29T15:08:48;14.60;;;5.93;;